SAS29Z EDDH-ESSA
Flight info
| Callsign | SAS29Z |
|---|---|
| Flight time | 1h 16m |
| Altitude | 37000 |
| Route | LUGEG3G/33 LUGEG P605 MEGAR DCT KUBIS DCT MIKNA N851 PELUP Z226 NILUG |
| Aircraft | A21N/M-SDE3FGHIRWY/LB1 |
Departure
| Time | 2026-04-26 18:29 |
|---|---|
| Airport | Hamburg Helmut Schmidt Airport (EDDH) |
Arrival
| Time | 2026-04-26 19:46 |
|---|---|
| Airport | Stockholm-Arlanda Airport (ESSA) |
| Time | Latitude | Longitude | Altitude | Speed | Heading |
|---|---|---|---|---|---|
| 2026-04-26 17:57 | 53.63332 | 10.00342 | 62 ft | 0 kts | 86° |
| 2026-04-26 18:21 | 53.63331 | 10.00317 | 62 ft | 2 kts | 86° |
| 2026-04-26 18:21 | 53.63330 | 10.00291 | 62 ft | 2 kts | 86° |
| 2026-04-26 18:21 | 53.63329 | 10.00267 | 62 ft | 2 kts | 86° |
| 2026-04-26 18:21 | 53.63328 | 10.00242 | 62 ft | 2 kts | 86° |
| 2026-04-26 18:22 | 53.63327 | 10.00216 | 62 ft | 2 kts | 95° |
| 2026-04-26 18:22 | 53.63332 | 10.00192 | 62 ft | 2 kts | 122° |
| 2026-04-26 18:22 | 53.63341 | 10.00174 | 62 ft | 2 kts | 145° |
| 2026-04-26 18:22 | 53.63355 | 10.00163 | 62 ft | 2 kts | 167° |
| 2026-04-26 18:23 | 53.63362 | 10.00161 | 62 ft | 1 kts | 180° |
| 2026-04-26 18:23 | 53.63366 | 10.00161 | 62 ft | 0 kts | 176° |
| 2026-04-26 18:25 | 53.63350 | 10.00163 | 62 ft | 3 kts | 176° |
| 2026-04-26 18:26 | 53.63314 | 10.00167 | 62 ft | 7 kts | 176° |
| 2026-04-26 18:26 | 53.63241 | 10.00176 | 62 ft | 13 kts | 176° |
| 2026-04-26 18:26 | 53.63148 | 10.00187 | 62 ft | 13 kts | 175° |
| 2026-04-26 18:26 | 53.63064 | 10.00177 | 62 ft | 11 kts | 208° |
| 2026-04-26 18:27 | 53.62996 | 10.00104 | 62 ft | 11 kts | 212° |
| 2026-04-26 18:27 | 53.62929 | 10.00018 | 62 ft | 12 kts | 230° |
| 2026-04-26 18:27 | 53.62888 | 9.99888 | 62 ft | 12 kts | 244° |
| 2026-04-26 18:27 | 53.62862 | 9.99800 | 62 ft | 4 kts | 244° |
| 2026-04-26 18:28 | 53.62861 | 9.99755 | 62 ft | 4 kts | 304° |
| 2026-04-26 18:28 | 53.62875 | 9.99738 | 62 ft | 0 kts | 333° |
| 2026-04-26 18:28 | 53.62876 | 9.99737 | 62 ft | 2 kts | 333° |
| 2026-04-26 18:28 | 53.63068 | 9.99571 | 62 ft | 70 kts | 333° |
| 2026-04-26 18:29 | 53.63729 | 9.99002 | 62 ft | 139 kts | 332° |
| 2026-04-26 18:29 | 53.64708 | 9.98156 | 357 ft | 168 kts | 332° |
| 2026-04-26 18:29 | 53.65743 | 9.97245 | 1113 ft | 171 kts | 331° |
| 2026-04-26 18:29 | 53.66794 | 9.96312 | 1817 ft | 179 kts | 332° |
| 2026-04-26 18:30 | 53.67927 | 9.95334 | 2421 ft | 192 kts | 332° |
| 2026-04-26 18:30 | 53.69222 | 9.94479 | 2979 ft | 210 kts | 350° |
| 2026-04-26 18:30 | 53.70703 | 9.94600 | 3686 ft | 219 kts | 6° |
| 2026-04-26 18:30 | 53.72225 | 9.94875 | 4401 ft | 229 kts | 3° |
| 2026-04-26 18:31 | 53.73703 | 9.95662 | 5380 ft | 230 kts | 36° |
| 2026-04-26 18:31 | 53.74689 | 9.97797 | 6046 ft | 244 kts | 62° |
| 2026-04-26 18:31 | 53.75405 | 10.00512 | 6579 ft | 261 kts | 64° |
| 2026-04-26 18:31 | 53.76151 | 10.03393 | 7171 ft | 276 kts | 63° |
| 2026-04-26 18:32 | 53.76946 | 10.06358 | 7994 ft | 282 kts | 62° |
| 2026-04-26 18:32 | 53.77779 | 10.09375 | 8873 ft | 285 kts | 61° |
| 2026-04-26 18:32 | 53.78619 | 10.12366 | 9639 ft | 287 kts | 60° |
| 2026-04-26 18:32 | 53.79488 | 10.15419 | 10114 ft | 289 kts | 60° |
| 2026-04-26 18:33 | 53.80370 | 10.18503 | 10284 ft | 290 kts | 59° |
| 2026-04-26 18:33 | 53.81249 | 10.21570 | 10351 ft | 293 kts | 59° |
| 2026-04-26 18:33 | 53.82157 | 10.24732 | 10653 ft | 309 kts | 59° |
| 2026-04-26 18:33 | 53.83119 | 10.28076 | 11049 ft | 327 kts | 59° |
| 2026-04-26 18:34 | 53.84132 | 10.31612 | 11508 ft | 341 kts | 60° |
| 2026-04-26 18:34 | 53.85161 | 10.35229 | 12145 ft | 346 kts | 60° |
| 2026-04-26 18:34 | 53.86204 | 10.38904 | 12910 ft | 350 kts | 60° |
| 2026-04-26 18:34 | 53.87259 | 10.42624 | 13609 ft | 354 kts | 60° |
| 2026-04-26 18:35 | 53.88318 | 10.46363 | 14308 ft | 358 kts | 60° |
| 2026-04-26 18:35 | 53.89395 | 10.50167 | 14955 ft | 362 kts | 59° |
| 2026-04-26 18:35 | 53.90485 | 10.54019 | 15610 ft | 366 kts | 60° |
| 2026-04-26 18:35 | 53.91597 | 10.57955 | 16275 ft | 370 kts | 60° |
| 2026-04-26 18:36 | 53.92664 | 10.61735 | 16878 ft | 374 kts | 59° |
| 2026-04-26 18:36 | 53.93919 | 10.65569 | 17486 ft | 375 kts | 53° |
| 2026-04-26 18:36 | 53.95434 | 10.69144 | 18122 ft | 376 kts | 46° |
| 2026-04-26 18:36 | 53.97181 | 10.72490 | 18708 ft | 378 kts | 43° |
| 2026-04-26 18:37 | 53.98973 | 10.75734 | 19296 ft | 381 kts | 42° |
| 2026-04-26 18:37 | 54.00786 | 10.78993 | 19898 ft | 385 kts | 42° |
| 2026-04-26 18:37 | 54.02638 | 10.82339 | 20473 ft | 388 kts | 42° |
| 2026-04-26 18:37 | 54.04485 | 10.85694 | 21072 ft | 391 kts | 42° |
| 2026-04-26 18:38 | 54.06322 | 10.89044 | 21621 ft | 394 kts | 42° |
| 2026-04-26 18:38 | 54.08181 | 10.92444 | 22146 ft | 397 kts | 42° |
| 2026-04-26 18:38 | 54.10071 | 10.95907 | 22652 ft | 400 kts | 42° |
| 2026-04-26 18:38 | 54.11980 | 10.99413 | 23160 ft | 403 kts | 42° |
| 2026-04-26 18:39 | 54.13879 | 11.02922 | 23668 ft | 406 kts | 42° |
| 2026-04-26 18:39 | 54.15727 | 11.06350 | 24152 ft | 409 kts | 43° |
| 2026-04-26 18:39 | 54.17656 | 11.09934 | 24636 ft | 411 kts | 42° |
| 2026-04-26 18:39 | 54.19594 | 11.13539 | 25113 ft | 414 kts | 42° |
| 2026-04-26 18:40 | 54.21537 | 11.17158 | 25580 ft | 417 kts | 42° |
| 2026-04-26 18:40 | 54.23474 | 11.20776 | 26018 ft | 419 kts | 42° |
| 2026-04-26 18:40 | 54.25456 | 11.24481 | 26446 ft | 422 kts | 42° |
| 2026-04-26 18:40 | 54.27423 | 11.28169 | 26854 ft | 425 kts | 42° |
| 2026-04-26 18:41 | 54.29419 | 11.31916 | 27251 ft | 427 kts | 42° |
| 2026-04-26 18:41 | 54.31402 | 11.35646 | 27637 ft | 430 kts | 42° |
| 2026-04-26 18:41 | 54.33436 | 11.39480 | 28008 ft | 433 kts | 42° |
| 2026-04-26 18:41 | 54.35444 | 11.43269 | 28360 ft | 435 kts | 42° |
| 2026-04-26 18:42 | 54.37489 | 11.47134 | 28716 ft | 437 kts | 42° |
| 2026-04-26 18:42 | 54.39523 | 11.50970 | 29066 ft | 440 kts | 42° |
| 2026-04-26 18:42 | 54.41565 | 11.54825 | 29394 ft | 442 kts | 42° |
| 2026-04-26 18:42 | 54.43674 | 11.58719 | 29722 ft | 442 kts | 40° |
| 2026-04-26 18:43 | 54.45856 | 11.62328 | 30032 ft | 442 kts | 36° |
| 2026-04-26 18:43 | 54.48217 | 11.65769 | 30355 ft | 441 kts | 33° |
| 2026-04-26 18:43 | 54.50643 | 11.68870 | 30729 ft | 438 kts | 30° |
| 2026-04-26 18:43 | 54.53182 | 11.71751 | 31132 ft | 435 kts | 27° |
| 2026-04-26 18:44 | 54.55642 | 11.74430 | 31482 ft | 434 kts | 27° |
| 2026-04-26 18:44 | 54.58215 | 11.77209 | 31823 ft | 434 kts | 27° |
| 2026-04-26 18:44 | 54.60727 | 11.79924 | 32155 ft | 433 kts | 27° |
| 2026-04-26 18:44 | 54.63289 | 11.82702 | 32484 ft | 432 kts | 27° |
| 2026-04-26 18:45 | 54.65814 | 11.85450 | 32806 ft | 432 kts | 27° |
| 2026-04-26 18:45 | 54.68332 | 11.88197 | 33117 ft | 431 kts | 27° |
| 2026-04-26 18:45 | 54.70861 | 11.90962 | 33402 ft | 431 kts | 27° |
| 2026-04-26 18:45 | 54.73377 | 11.93715 | 33694 ft | 430 kts | 27° |
| 2026-04-26 18:46 | 54.75902 | 11.96485 | 33972 ft | 430 kts | 27° |
| 2026-04-26 18:46 | 54.78410 | 11.99241 | 34241 ft | 429 kts | 27° |
| 2026-04-26 18:46 | 54.80920 | 12.02004 | 34518 ft | 429 kts | 27° |
| 2026-04-26 18:46 | 54.83442 | 12.04784 | 34765 ft | 428 kts | 27° |
| 2026-04-26 18:47 | 54.85919 | 12.07516 | 34973 ft | 428 kts | 27° |
| 2026-04-26 18:47 | 54.88422 | 12.10284 | 35192 ft | 427 kts | 27° |
| 2026-04-26 18:47 | 54.90918 | 12.13046 | 35401 ft | 427 kts | 27° |
| 2026-04-26 18:47 | 54.93424 | 12.15824 | 35594 ft | 426 kts | 27° |
| 2026-04-26 18:48 | 54.95923 | 12.18597 | 35762 ft | 427 kts | 27° |
| 2026-04-26 18:48 | 54.98415 | 12.21368 | 35914 ft | 427 kts | 27° |
| 2026-04-26 18:48 | 55.00914 | 12.24149 | 36058 ft | 428 kts | 27° |
| 2026-04-26 18:48 | 55.03403 | 12.26924 | 36196 ft | 428 kts | 27° |
| 2026-04-26 18:49 | 55.05903 | 12.29717 | 36342 ft | 428 kts | 27° |
| 2026-04-26 18:49 | 55.08395 | 12.32505 | 36479 ft | 428 kts | 27° |
| 2026-04-26 18:49 | 55.10890 | 12.35300 | 36613 ft | 429 kts | 27° |
| 2026-04-26 18:49 | 55.13415 | 12.38134 | 36764 ft | 430 kts | 27° |
| 2026-04-26 18:50 | 55.15911 | 12.40938 | 36909 ft | 430 kts | 27° |
| 2026-04-26 18:50 | 55.18408 | 12.43750 | 37025 ft | 431 kts | 27° |
| 2026-04-26 18:50 | 55.20953 | 12.46619 | 37159 ft | 431 kts | 27° |
| 2026-04-26 18:50 | 55.23465 | 12.49474 | 37269 ft | 433 kts | 27° |
| 2026-04-26 18:51 | 55.28433 | 12.55313 | 37269 ft | 433 kts | 28° |
| 2026-04-26 18:51 | 55.33397 | 12.61194 | 37262 ft | 433 kts | 28° |
| 2026-04-26 18:52 | 55.37566 | 12.66137 | 37259 ft | 433 kts | 29° |
| 2026-04-26 18:52 | 55.43392 | 12.73059 | 37264 ft | 433 kts | 29° |
| 2026-04-26 18:53 | 55.48369 | 12.78991 | 37261 ft | 433 kts | 28° |
| 2026-04-26 18:53 | 55.53328 | 12.84916 | 37264 ft | 433 kts | 28° |
| 2026-04-26 18:54 | 55.58309 | 12.90888 | 37265 ft | 433 kts | 28° |
| 2026-04-26 18:54 | 55.63240 | 12.96818 | 37262 ft | 433 kts | 28° |
| 2026-04-26 18:55 | 55.68219 | 13.02820 | 37264 ft | 434 kts | 28° |
| 2026-04-26 18:55 | 55.73162 | 13.08802 | 37265 ft | 433 kts | 28° |
| 2026-04-26 18:56 | 55.78128 | 13.14828 | 37263 ft | 432 kts | 28° |
| 2026-04-26 18:56 | 55.83074 | 13.20853 | 37254 ft | 432 kts | 28° |
| 2026-04-26 18:57 | 55.87181 | 13.25868 | 37248 ft | 431 kts | 28° |
| 2026-04-26 18:57 | 55.92915 | 13.32891 | 37256 ft | 431 kts | 28° |
| 2026-04-26 18:58 | 55.97834 | 13.38938 | 37252 ft | 432 kts | 28° |
| 2026-04-26 18:58 | 56.02768 | 13.45020 | 37244 ft | 432 kts | 28° |
| 2026-04-26 18:59 | 56.07688 | 13.51104 | 37241 ft | 431 kts | 28° |
| 2026-04-26 18:59 | 56.12603 | 13.57203 | 37246 ft | 431 kts | 28° |
| 2026-04-26 19:00 | 56.17464 | 13.63252 | 37245 ft | 432 kts | 28° |
| 2026-04-26 19:00 | 56.22308 | 13.69303 | 37226 ft | 432 kts | 29° |
| 2026-04-26 19:01 | 56.27223 | 13.75458 | 37235 ft | 431 kts | 29° |
| 2026-04-26 19:01 | 56.32098 | 13.81582 | 37243 ft | 431 kts | 29° |
| 2026-04-26 19:02 | 56.37010 | 13.87773 | 37244 ft | 430 kts | 29° |
| 2026-04-26 19:02 | 56.41090 | 13.92935 | 37236 ft | 431 kts | 29° |
| 2026-04-26 19:03 | 56.46781 | 14.00153 | 37226 ft | 431 kts | 29° |
| 2026-04-26 19:03 | 56.51646 | 14.06344 | 37228 ft | 430 kts | 29° |
| 2026-04-26 19:04 | 56.56538 | 14.12591 | 37221 ft | 430 kts | 29° |
| 2026-04-26 19:04 | 56.61405 | 14.18824 | 37217 ft | 430 kts | 29° |
| 2026-04-26 19:05 | 56.68671 | 14.28170 | 37212 ft | 430 kts | 29° |
| 2026-04-26 19:06 | 56.73544 | 14.34462 | 37213 ft | 429 kts | 29° |
| 2026-04-26 19:06 | 56.78388 | 14.40736 | 37214 ft | 429 kts | 29° |
| 2026-04-26 19:07 | 56.83208 | 14.47000 | 37204 ft | 428 kts | 29° |
| 2026-04-26 19:07 | 56.88027 | 14.53284 | 37200 ft | 428 kts | 29° |
| 2026-04-26 19:08 | 56.92855 | 14.59599 | 37198 ft | 429 kts | 28° |
| 2026-04-26 19:08 | 56.97710 | 14.65970 | 37196 ft | 428 kts | 30° |
| 2026-04-26 19:09 | 57.02522 | 14.72305 | 37197 ft | 429 kts | 30° |
| 2026-04-26 19:09 | 57.07369 | 14.78707 | 37190 ft | 429 kts | 30° |
| 2026-04-26 19:10 | 57.12171 | 14.85072 | 37191 ft | 429 kts | 30° |
| 2026-04-26 19:10 | 57.16983 | 14.91472 | 37192 ft | 427 kts | 29° |
| 2026-04-26 19:11 | 57.21773 | 14.97859 | 37188 ft | 428 kts | 29° |
| 2026-04-26 19:11 | 57.26495 | 15.04180 | 37186 ft | 428 kts | 29° |
| 2026-04-26 19:12 | 57.31311 | 15.10647 | 37177 ft | 427 kts | 29° |
| 2026-04-26 19:12 | 57.36079 | 15.17070 | 37175 ft | 426 kts | 29° |
| 2026-04-26 19:13 | 57.40835 | 15.23497 | 37176 ft | 426 kts | 29° |
| 2026-04-26 19:13 | 57.45600 | 15.29959 | 37170 ft | 427 kts | 29° |
| 2026-04-26 19:14 | 57.50369 | 15.36446 | 37175 ft | 426 kts | 29° |
| 2026-04-26 19:14 | 57.55138 | 15.42954 | 37164 ft | 426 kts | 29° |
| 2026-04-26 19:15 | 57.59898 | 15.49473 | 37164 ft | 425 kts | 29° |
| 2026-04-26 19:15 | 57.64631 | 15.55978 | 37160 ft | 425 kts | 29° |
| 2026-04-26 19:16 | 57.69365 | 15.62504 | 37169 ft | 425 kts | 29° |
| 2026-04-26 19:16 | 57.73707 | 15.70067 | 36912 ft | 428 kts | 39° |
| 2026-04-26 19:16 | 57.75745 | 15.74055 | 36442 ft | 426 kts | 39° |
| 2026-04-26 19:17 | 57.77762 | 15.78017 | 36018 ft | 424 kts | 39° |
| 2026-04-26 19:17 | 57.79788 | 15.81987 | 35667 ft | 421 kts | 38° |
| 2026-04-26 19:17 | 57.81794 | 15.85910 | 35232 ft | 419 kts | 38° |
| 2026-04-26 19:17 | 57.83793 | 15.89813 | 34745 ft | 418 kts | 38° |
| 2026-04-26 19:18 | 57.85815 | 15.93763 | 34125 ft | 418 kts | 38° |
| 2026-04-26 19:18 | 57.87808 | 15.97651 | 33463 ft | 418 kts | 38° |
| 2026-04-26 19:18 | 57.89819 | 16.01578 | 32757 ft | 420 kts | 38° |
| 2026-04-26 19:18 | 57.91837 | 16.05528 | 32031 ft | 421 kts | 37° |
| 2026-04-26 19:19 | 57.93852 | 16.09476 | 31319 ft | 422 kts | 37° |
| 2026-04-26 19:19 | 57.95866 | 16.13432 | 30628 ft | 422 kts | 37° |
| 2026-04-26 19:19 | 57.97867 | 16.17370 | 29890 ft | 422 kts | 37° |
| 2026-04-26 19:19 | 57.99876 | 16.21328 | 29344 ft | 417 kts | 37° |
| 2026-04-26 19:20 | 58.01871 | 16.25269 | 29162 ft | 416 kts | 37° |
| 2026-04-26 19:20 | 58.05861 | 16.33164 | 29156 ft | 419 kts | 37° |
| 2026-04-26 19:21 | 58.09833 | 16.41064 | 28741 ft | 410 kts | 37° |
| 2026-04-26 19:21 | 58.11776 | 16.44937 | 28101 ft | 409 kts | 37° |
| 2026-04-26 19:21 | 58.13712 | 16.48792 | 27501 ft | 406 kts | 37° |
| 2026-04-26 19:21 | 58.15517 | 16.52398 | 27001 ft | 403 kts | 37° |
| 2026-04-26 19:22 | 58.17433 | 16.56234 | 26455 ft | 399 kts | 37° |
| 2026-04-26 19:22 | 58.19264 | 16.59906 | 25948 ft | 396 kts | 37° |
| 2026-04-26 19:22 | 58.21137 | 16.63666 | 25408 ft | 393 kts | 37° |
| 2026-04-26 19:22 | 58.22826 | 16.67065 | 24928 ft | 390 kts | 37° |
| 2026-04-26 19:23 | 58.24667 | 16.70769 | 24380 ft | 388 kts | 38° |
| 2026-04-26 19:23 | 58.26404 | 16.74269 | 23906 ft | 384 kts | 38° |
| 2026-04-26 19:23 | 58.28229 | 16.77959 | 23420 ft | 381 kts | 38° |
| 2026-04-26 19:23 | 58.30030 | 16.81598 | 22916 ft | 378 kts | 38° |
| 2026-04-26 19:24 | 58.31823 | 16.85228 | 22392 ft | 376 kts | 38° |
| 2026-04-26 19:24 | 58.33583 | 16.88794 | 21889 ft | 373 kts | 38° |
| 2026-04-26 19:24 | 58.37085 | 16.95921 | 20903 ft | 367 kts | 38° |
| 2026-04-26 19:25 | 58.38820 | 16.99458 | 20388 ft | 365 kts | 38° |
| 2026-04-26 19:25 | 58.39962 | 17.01790 | 20064 ft | 363 kts | 38° |
| 2026-04-26 19:25 | 58.42231 | 17.06427 | 19410 ft | 359 kts | 38° |
| 2026-04-26 19:25 | 58.43932 | 17.09912 | 18910 ft | 356 kts | 39° |
| 2026-04-26 19:26 | 58.45594 | 17.13322 | 18421 ft | 354 kts | 39° |
| 2026-04-26 19:26 | 58.47261 | 17.16750 | 17968 ft | 350 kts | 39° |
| 2026-04-26 19:26 | 58.48902 | 17.20128 | 17499 ft | 347 kts | 39° |
| 2026-04-26 19:26 | 58.50524 | 17.23472 | 17021 ft | 345 kts | 39° |
| 2026-04-26 19:27 | 58.52140 | 17.26805 | 16536 ft | 342 kts | 39° |
| 2026-04-26 19:27 | 58.53760 | 17.30153 | 16055 ft | 340 kts | 39° |
| 2026-04-26 19:27 | 58.55345 | 17.33435 | 15609 ft | 337 kts | 39° |
| 2026-04-26 19:27 | 58.56902 | 17.36665 | 15152 ft | 334 kts | 39° |
| 2026-04-26 19:28 | 58.58462 | 17.39903 | 14680 ft | 331 kts | 39° |
| 2026-04-26 19:28 | 58.60015 | 17.43130 | 14225 ft | 327 kts | 39° |
| 2026-04-26 19:28 | 58.61544 | 17.46314 | 13738 ft | 326 kts | 39° |
| 2026-04-26 19:28 | 58.63067 | 17.49479 | 13269 ft | 324 kts | 40° |
| 2026-04-26 19:29 | 58.64587 | 17.52649 | 12796 ft | 322 kts | 40° |
| 2026-04-26 19:29 | 58.66100 | 17.55813 | 12312 ft | 320 kts | 40° |
| 2026-04-26 19:29 | 58.67601 | 17.58894 | 11828 ft | 317 kts | 37° |
| 2026-04-26 19:29 | 58.69364 | 17.61177 | 11343 ft | 304 kts | 20° |
| 2026-04-26 19:30 | 58.71291 | 17.62841 | 11124 ft | 301 kts | 17° |
| 2026-04-26 19:30 | 58.73217 | 17.64387 | 11121 ft | 303 kts | 17° |
| 2026-04-26 19:30 | 58.75186 | 17.65953 | 11118 ft | 303 kts | 18° |
| 2026-04-26 19:30 | 58.76471 | 17.66972 | 11119 ft | 302 kts | 18° |
| 2026-04-26 19:31 | 58.78947 | 17.68952 | 11114 ft | 282 kts | 18° |
| 2026-04-26 19:31 | 58.80760 | 17.70407 | 11118 ft | 282 kts | 18° |
| 2026-04-26 19:31 | 58.82560 | 17.71852 | 11116 ft | 282 kts | 18° |
| 2026-04-26 19:31 | 58.84380 | 17.73317 | 11118 ft | 282 kts | 18° |
| 2026-04-26 19:32 | 58.86193 | 17.74777 | 11117 ft | 282 kts | 18° |
| 2026-04-26 19:32 | 58.87972 | 17.76206 | 11114 ft | 277 kts | 18° |
| 2026-04-26 19:32 | 58.89698 | 17.77605 | 11112 ft | 262 kts | 18° |
| 2026-04-26 19:32 | 58.91356 | 17.78971 | 11117 ft | 260 kts | 18° |
| 2026-04-26 19:33 | 58.93011 | 17.80339 | 11119 ft | 260 kts | 18° |
| 2026-04-26 19:33 | 58.94669 | 17.81715 | 11120 ft | 259 kts | 18° |
| 2026-04-26 19:33 | 58.96291 | 17.83079 | 11112 ft | 249 kts | 18° |
| 2026-04-26 19:33 | 58.97889 | 17.84202 | 11064 ft | 241 kts | 4° |
| 2026-04-26 19:34 | 58.99513 | 17.84170 | 10744 ft | 235 kts | 351° |
| 2026-04-26 19:34 | 59.01144 | 17.83698 | 10112 ft | 244 kts | 348° |
| 2026-04-26 19:34 | 59.02821 | 17.83126 | 9533 ft | 248 kts | 348° |
| 2026-04-26 19:34 | 59.04518 | 17.82515 | 9162 ft | 246 kts | 347° |
| 2026-04-26 19:35 | 59.06195 | 17.81964 | 8739 ft | 245 kts | 353° |
| 2026-04-26 19:35 | 59.07887 | 17.81824 | 8328 ft | 245 kts | 357° |
| 2026-04-26 19:35 | 59.09587 | 17.81811 | 7932 ft | 244 kts | 358° |
| 2026-04-26 19:35 | 59.11259 | 17.81819 | 7624 ft | 241 kts | 358° |
| 2026-04-26 19:36 | 59.12894 | 17.81828 | 7362 ft | 241 kts | 358° |
| 2026-04-26 19:36 | 59.13945 | 17.81831 | 7189 ft | 241 kts | 358° |
| 2026-04-26 19:36 | 59.16098 | 17.81840 | 6853 ft | 239 kts | 358° |
| 2026-04-26 19:36 | 59.17763 | 17.81837 | 6596 ft | 239 kts | 358° |
| 2026-04-26 19:37 | 59.19411 | 17.81826 | 6348 ft | 238 kts | 358° |
| 2026-04-26 19:37 | 59.21054 | 17.81726 | 6107 ft | 238 kts | 357° |
| 2026-04-26 19:37 | 59.22719 | 17.81682 | 5867 ft | 238 kts | 358° |
| 2026-04-26 19:37 | 59.24355 | 17.81654 | 5634 ft | 237 kts | 358° |
| 2026-04-26 19:38 | 59.26002 | 17.81923 | 5398 ft | 238 kts | 5° |
| 2026-04-26 19:38 | 59.27642 | 17.82423 | 5174 ft | 237 kts | 7° |
| 2026-04-26 19:38 | 59.29251 | 17.82971 | 4995 ft | 237 kts | 7° |
| 2026-04-26 19:38 | 59.30872 | 17.83543 | 4816 ft | 237 kts | 7° |
| 2026-04-26 19:39 | 59.32473 | 17.84118 | 4634 ft | 233 kts | 8° |
| 2026-04-26 19:39 | 59.34035 | 17.84686 | 4474 ft | 223 kts | 7° |
| 2026-04-26 19:39 | 59.35538 | 17.85234 | 4312 ft | 214 kts | 7° |
| 2026-04-26 19:39 | 59.36962 | 17.85754 | 4151 ft | 206 kts | 7° |
| 2026-04-26 19:40 | 59.38353 | 17.86262 | 4002 ft | 197 kts | 7° |
| 2026-04-26 19:40 | 59.39658 | 17.86738 | 3994 ft | 192 kts | 7° |
| 2026-04-26 19:40 | 59.40969 | 17.87214 | 3999 ft | 192 kts | 7° |
| 2026-04-26 19:40 | 59.42289 | 17.87693 | 4002 ft | 192 kts | 7° |
| 2026-04-26 19:41 | 59.43606 | 17.88171 | 3943 ft | 192 kts | 7° |
| 2026-04-26 19:41 | 59.44905 | 17.88644 | 3720 ft | 189 kts | 7° |
| 2026-04-26 19:41 | 59.46175 | 17.89106 | 3464 ft | 188 kts | 7° |
| 2026-04-26 19:41 | 59.47031 | 17.89417 | 3290 ft | 187 kts | 7° |
| 2026-04-26 19:42 | 59.48725 | 17.90033 | 2950 ft | 186 kts | 7° |
| 2026-04-26 19:42 | 59.50003 | 17.90496 | 2697 ft | 185 kts | 7° |
| 2026-04-26 19:42 | 59.51230 | 17.90944 | 2540 ft | 175 kts | 7° |
| 2026-04-26 19:42 | 59.52404 | 17.91372 | 2275 ft | 169 kts | 7° |
| 2026-04-26 19:43 | 59.53519 | 17.91777 | 2010 ft | 157 kts | 7° |
| 2026-04-26 19:43 | 59.54551 | 17.92153 | 1774 ft | 148 kts | 6° |
| 2026-04-26 19:43 | 59.55561 | 17.92517 | 1574 ft | 147 kts | 6° |
| 2026-04-26 19:43 | 59.56560 | 17.92878 | 1419 ft | 145 kts | 6° |
| 2026-04-26 19:44 | 59.57546 | 17.93235 | 1216 ft | 144 kts | 6° |
| 2026-04-26 19:44 | 59.58530 | 17.93592 | 1017 ft | 144 kts | 7° |
| 2026-04-26 19:44 | 59.59520 | 17.93945 | 815 ft | 143 kts | 6° |
| 2026-04-26 19:44 | 59.60492 | 17.94292 | 633 ft | 143 kts | 8° |
| 2026-04-26 19:45 | 59.61460 | 17.94654 | 438 ft | 142 kts | 7° |
| 2026-04-26 19:45 | 59.62421 | 17.94998 | 219 ft | 139 kts | 7° |
| 2026-04-26 19:45 | 59.63335 | 17.95327 | 128 ft | 118 kts | 10° |
| 2026-04-26 19:45 | 59.63970 | 17.95555 | 114 ft | 68 kts | 11° |
| 2026-04-26 19:46 | 59.64298 | 17.95674 | 111 ft | 37 kts | 8° |
| 2026-04-26 19:46 | 59.64505 | 17.95677 | 109 ft | 28 kts | 348° |
| 2026-04-26 19:46 | 59.64666 | 17.95573 | 108 ft | 21 kts | 340° |
| 2026-04-26 19:46 | 59.64762 | 17.95506 | 108 ft | 0 kts | 340° |
| 2026-04-26 19:47 | 59.64763 | 17.95506 | 108 ft | 0 kts | 340° |
| 2026-04-26 19:47 | 59.64773 | 17.95498 | 108 ft | 3 kts | 340° |
| 2026-04-26 19:47 | 59.64811 | 17.95472 | 108 ft | 7 kts | 344° |
| 2026-04-26 19:48 | 59.64880 | 17.95478 | 109 ft | 12 kts | 9° |
| 2026-04-26 19:48 | 59.64974 | 17.95507 | 110 ft | 14 kts | 6° |
| 2026-04-26 19:48 | 59.65074 | 17.95492 | 111 ft | 14 kts | 348° |
| 2026-04-26 19:48 | 59.65163 | 17.95446 | 113 ft | 12 kts | 345° |
| 2026-04-26 19:49 | 59.65242 | 17.95403 | 115 ft | 11 kts | 344° |
| 2026-04-26 19:49 | 59.65318 | 17.95363 | 118 ft | 12 kts | 345° |
| 2026-04-26 19:49 | 59.65415 | 17.95313 | 120 ft | 16 kts | 345° |
| 2026-04-26 19:49 | 59.65522 | 17.95257 | 123 ft | 15 kts | 345° |
| 2026-04-26 19:50 | 59.65613 | 17.95209 | 125 ft | 12 kts | 345° |
| 2026-04-26 19:50 | 59.65692 | 17.95169 | 126 ft | 10 kts | 344° |
| 2026-04-26 19:50 | 59.65745 | 17.95092 | 127 ft | 9 kts | 296° |
| 2026-04-26 19:50 | 59.65744 | 17.94954 | 128 ft | 11 kts | 256° |
| 2026-04-26 19:51 | 59.65723 | 17.94790 | 127 ft | 13 kts | 256° |
| 2026-04-26 19:51 | 59.65699 | 17.94602 | 127 ft | 14 kts | 256° |
| 2026-04-26 19:51 | 59.65674 | 17.94409 | 125 ft | 14 kts | 256° |
| 2026-04-26 19:51 | 59.65649 | 17.94212 | 124 ft | 15 kts | 256° |
| 2026-04-26 19:52 | 59.65624 | 17.94007 | 120 ft | 13 kts | 256° |
| 2026-04-26 19:52 | 59.65593 | 17.93875 | 118 ft | 10 kts | 207° |
| 2026-04-26 19:52 | 59.65522 | 17.93888 | 118 ft | 10 kts | 166° |
| 2026-04-26 19:52 | 59.65448 | 17.93925 | 117 ft | 11 kts | 166° |
| 2026-04-26 19:53 | 59.65379 | 17.93960 | 116 ft | 7 kts | 166° |
| 2026-04-26 19:53 | 59.65330 | 17.93932 | 116 ft | 8 kts | 226° |
| 2026-04-26 19:53 | 59.65313 | 17.93862 | 114 ft | 3 kts | 256° |
| 2026-04-26 19:53 | 59.65311 | 17.93844 | 114 ft | 0 kts | 256° |